createdAt,value
2022-08-07T00:00:12.772Z,993.70
2022-08-07T00:01:44.370Z,993.73
2022-08-07T00:02:40.398Z,993.74
2022-08-07T00:03:13.718Z,993.76
2022-08-07T00:04:15.303Z,993.72
2022-08-07T00:05:12.790Z,993.72
2022-08-07T00:06:12.690Z,993.75
2022-08-07T00:07:12.816Z,993.75
2022-08-07T00:08:12.671Z,993.75
2022-08-07T00:09:16.885Z,993.74
2022-08-07T00:10:26.226Z,993.75
2022-08-07T00:11:13.605Z,993.70
2022-08-07T00:12:18.990Z,993.69
2022-08-07T00:13:23.981Z,993.66
2022-08-07T00:14:13.587Z,993.67
2022-08-07T00:15:13.620Z,993.76
2022-08-07T00:16:12.546Z,993.70
2022-08-07T00:17:13.650Z,993.69
2022-08-07T00:18:19.247Z,993.68
2022-08-07T00:19:21.527Z,993.73
2022-08-07T00:20:15.619Z,993.73
2022-08-07T00:21:56.706Z,993.71
2022-08-07T00:22:13.496Z,993.68
2022-08-07T00:23:13.490Z,993.68
2022-08-07T00:24:12.499Z,993.64
2022-08-07T00:25:16.587Z,993.67
2022-08-07T00:26:13.330Z,993.68
2022-08-07T00:27:13.470Z,993.62
2022-08-07T00:28:12.472Z,993.66
2022-08-07T00:29:12.435Z,993.64
2022-08-07T00:30:21.796Z,993.64
2022-08-07T00:31:16.588Z,993.59
2022-08-07T00:32:12.382Z,993.61
2022-08-07T00:33:12.364Z,993.56
2022-08-07T00:34:12.372Z,993.59
2022-08-07T00:35:12.335Z,993.54
2022-08-07T00:36:12.434Z,993.60
2022-08-07T00:37:12.367Z,993.56
2022-08-07T00:38:13.104Z,993.57
2022-08-07T00:39:12.757Z,993.53
2022-08-07T00:40:13.991Z,993.55
2022-08-07T00:41:14.835Z,993.46
2022-08-07T00:42:12.269Z,993.49
2022-08-07T00:43:59.224Z,993.44
2022-08-07T00:44:15.116Z,993.51
2022-08-07T00:45:16.152Z,993.52
2022-08-07T00:46:12.368Z,993.51
2022-08-07T00:48:09.783Z,993.54
2022-08-07T00:48:13.341Z,993.52
2022-08-07T00:49:12.209Z,993.52
2022-08-07T00:50:20.391Z,993.54
2022-08-07T00:51:13.206Z,993.53
2022-08-07T00:52:12.214Z,993.56
2022-08-07T00:53:12.147Z,993.50
2022-08-07T00:54:12.267Z,993.52
2022-08-07T00:55:12.131Z,993.47
2022-08-07T00:56:14.030Z,993.50
2022-08-07T00:57:12.291Z,993.43
2022-08-07T00:58:12.099Z,993.45
2022-08-07T00:59:12.111Z,993.42
2022-08-07T01:00:12.139Z,993.45
2022-08-07T01:01:12.136Z,993.42
2022-08-07T01:02:28.136Z,993.41
2022-08-07T01:03:13.046Z,993.35
2022-08-07T01:04:12.055Z,993.33
2022-08-07T01:05:18.835Z,993.41
2022-08-07T01:06:13.015Z,993.41
2022-08-07T01:07:12.055Z,993.46
2022-08-07T01:08:12.017Z,993.37
2022-08-07T01:09:12.009Z,993.40
2022-08-07T01:10:12.965Z,993.38
2022-08-07T01:12:04.726Z,993.37
2022-08-07T01:12:30.009Z,993.33
2022-08-07T01:13:13.008Z,993.29
2022-08-07T01:14:11.944Z,993.27
2022-08-07T01:15:17.675Z,993.37
2022-08-07T01:16:12.898Z,993.33
2022-08-07T01:17:13.996Z,993.33
2022-08-07T01:18:16.631Z,993.35
2022-08-07T01:19:19.010Z,993.31
2022-08-07T01:20:17.183Z,993.28
2022-08-07T01:21:22.905Z,993.29
2022-08-07T01:22:22.514Z,993.24
2022-08-07T01:23:13.077Z,993.28
2022-08-07T01:24:11.818Z,993.28
2022-08-07T01:25:54.131Z,993.26
2022-08-07T01:26:12.780Z,993.23
2022-08-07T01:27:19.477Z,993.29
2022-08-07T01:28:12.784Z,993.30
2022-08-07T01:29:11.788Z,993.27
2022-08-07T01:30:11.745Z,993.29
2022-08-07T01:31:15.545Z,993.34
2022-08-07T01:32:13.660Z,993.32
2022-08-07T01:33:11.726Z,993.32
2022-08-07T01:34:11.700Z,993.36
2022-08-07T01:35:11.805Z,993.39
2022-08-07T01:36:12.741Z,993.35
2022-08-07T01:37:11.665Z,993.38
2022-08-07T01:38:12.301Z,993.39
2022-08-07T01:39:11.683Z,993.39
2022-08-07T01:40:14.966Z,993.38
2022-08-07T01:41:11.733Z,993.32
2022-08-07T01:42:40.292Z,993.39
2022-08-07T01:43:12.638Z,993.30
2022-08-07T01:44:11.597Z,993.35
2022-08-07T01:45:18.187Z,993.37
2022-08-07T01:46:12.571Z,993.33
2022-08-07T01:47:14.287Z,993.31
2022-08-07T01:48:19.414Z,993.29
2022-08-07T01:49:12.522Z,993.29
2022-08-07T01:50:11.527Z,993.30
2022-08-07T01:52:02.735Z,993.29
2022-08-07T01:52:12.497Z,993.26
2022-08-07T01:53:11.481Z,993.25
2022-08-07T01:54:32.636Z,993.26
2022-08-07T01:55:21.982Z,993.28
2022-08-07T01:56:12.474Z,993.28
2022-08-07T01:57:24.280Z,993.30
2022-08-07T01:58:28.970Z,993.22
2022-08-07T01:59:15.903Z,993.29
2022-08-07T02:00:13.012Z,993.29
2022-08-07T02:01:25.572Z,993.27
2022-08-07T02:02:12.508Z,993.24
2022-08-07T02:03:22.038Z,993.22
2022-08-07T02:04:12.431Z,993.23
2022-08-07T02:05:16.065Z,993.29
2022-08-07T02:06:30.698Z,993.25
2022-08-07T02:07:12.374Z,993.28
2022-08-07T02:08:11.314Z,993.29
2022-08-07T02:09:11.654Z,993.31
2022-08-07T02:10:14.347Z,993.32
2022-08-07T02:11:11.280Z,993.35
2022-08-07T02:12:12.327Z,993.33
2022-08-07T02:13:12.316Z,993.37
2022-08-07T02:14:11.247Z,993.35
2022-08-07T02:15:12.236Z,993.32
2022-08-07T02:16:12.021Z,993.28
2022-08-07T02:17:11.302Z,993.29
2022-08-07T02:18:11.234Z,993.28
2022-08-07T02:20:05.435Z,993.24
2022-08-07T02:20:19.708Z,993.30
2022-08-07T02:21:13.791Z,993.25
2022-08-07T02:22:11.166Z,993.23
2022-08-07T02:23:11.686Z,993.28
2022-08-07T02:24:11.165Z,993.27
2022-08-07T02:25:13.808Z,993.24
2022-08-07T02:26:32.919Z,993.26
2022-08-07T02:27:12.106Z,993.26
2022-08-07T02:28:11.301Z,993.24
2022-08-07T02:29:13.527Z,993.18
2022-08-07T02:30:11.080Z,993.17
2022-08-07T02:31:28.555Z,993.19
2022-08-07T02:32:12.058Z,993.20
2022-08-07T02:33:11.065Z,993.24
2022-08-07T02:34:17.340Z,993.19
2022-08-07T02:35:12.036Z,993.22
2022-08-07T02:36:28.807Z,993.25
2022-08-07T02:37:12.001Z,993.22
2022-08-07T02:38:11.005Z,993.21
2022-08-07T02:39:17.046Z,993.21
2022-08-07T02:40:30.665Z,993.22
2022-08-07T02:41:12.067Z,993.23
2022-08-07T02:42:16.178Z,993.23
2022-08-07T02:43:10.998Z,993.24
2022-08-07T02:44:10.925Z,993.32
2022-08-07T02:45:59.144Z,993.31
2022-08-07T02:46:11.914Z,993.39
2022-08-07T02:47:19.328Z,993.38
2022-08-07T02:48:15.746Z,993.36
2022-08-07T02:49:10.912Z,993.34
2022-08-07T02:50:11.916Z,993.34
2022-08-07T02:51:14.216Z,993.33
2022-08-07T02:52:12.990Z,993.29
2022-08-07T02:53:11.117Z,993.28
2022-08-07T02:54:10.872Z,993.22
2022-08-07T02:55:15.260Z,993.21
2022-08-07T02:56:21.104Z,993.22
2022-08-07T02:57:11.798Z,993.19
2022-08-07T02:58:10.875Z,993.24
2022-08-07T02:59:10.783Z,993.26
2022-08-07T03:00:11.047Z,993.31
2022-08-07T03:01:18.703Z,993.29
2022-08-07T03:02:11.805Z,993.23
2022-08-07T03:03:13.556Z,993.16
2022-08-07T03:04:12.803Z,993.26
2022-08-07T03:05:10.764Z,993.20
2022-08-07T03:06:16.609Z,993.20
2022-08-07T03:07:11.768Z,993.18
2022-08-07T03:08:10.759Z,993.23
2022-08-07T03:09:11.210Z,993.20
2022-08-07T03:10:10.664Z,993.22
2022-08-07T03:11:10.628Z,993.18
2022-08-07T03:12:21.823Z,993.22
2022-08-07T03:13:11.661Z,993.17
2022-08-07T03:14:10.612Z,993.16
2022-08-07T03:15:10.634Z,993.20
2022-08-07T03:16:10.626Z,993.20
2022-08-07T03:17:10.621Z,993.18
2022-08-07T03:18:10.636Z,993.18
2022-08-07T03:19:11.588Z,993.20
2022-08-07T03:20:10.610Z,993.20
2022-08-07T03:21:11.278Z,993.19
2022-08-07T03:22:18.831Z,993.22
2022-08-07T03:23:19.257Z,993.12
2022-08-07T03:24:19.307Z,993.16
2022-08-07T03:25:11.474Z,993.16
2022-08-07T03:26:15.653Z,993.14
2022-08-07T03:27:11.476Z,993.19
2022-08-07T03:28:38.258Z,993.17
2022-08-07T03:29:11.438Z,993.18
2022-08-07T03:30:10.806Z,993.20
2022-08-07T03:31:10.453Z,993.18
2022-08-07T03:32:13.233Z,993.18
2022-08-07T03:33:10.393Z,993.22
2022-08-07T03:34:10.413Z,993.17
2022-08-07T03:35:17.738Z,993.25
2022-08-07T03:36:11.356Z,993.22
2022-08-07T03:37:12.359Z,993.22
2022-08-07T03:38:10.532Z,993.23
2022-08-07T03:39:10.393Z,993.22
2022-08-07T03:40:15.829Z,993.19
2022-08-07T03:41:11.303Z,993.25
2022-08-07T03:42:10.315Z,993.24
2022-08-07T03:43:14.588Z,993.23
2022-08-07T03:44:10.299Z,993.28
2022-08-07T03:45:10.275Z,993.28
2022-08-07T03:46:18.428Z,993.30
2022-08-07T03:47:14.384Z,993.27
2022-08-07T03:48:11.457Z,993.30
2022-08-07T03:49:10.292Z,993.33
2022-08-07T03:50:10.650Z,993.31
2022-08-07T03:51:10.312Z,993.27
2022-08-07T03:52:22.395Z,993.26
2022-08-07T03:53:11.199Z,993.24
2022-08-07T03:54:35.886Z,993.22
2022-08-07T03:55:11.265Z,993.25
2022-08-07T03:56:10.210Z,993.25
2022-08-07T03:57:10.125Z,993.23
2022-08-07T03:58:33.677Z,993.24
2022-08-07T03:59:13.352Z,993.26
2022-08-07T04:00:10.504Z,993.25
2022-08-07T04:01:11.151Z,993.26
2022-08-07T04:02:10.073Z,993.20
2022-08-07T04:03:10.113Z,993.19
2022-08-07T04:04:10.147Z,993.14
2022-08-07T04:05:11.053Z,993.17
2022-08-07T04:06:10.029Z,993.17
2022-08-07T04:07:17.460Z,993.15
2022-08-07T04:08:11.136Z,993.18
2022-08-07T04:09:15.644Z,993.18
2022-08-07T04:10:15.625Z,993.22
2022-08-07T04:12:21.370Z,993.25
2022-08-07T04:12:27.692Z,993.22
2022-08-07T04:13:15.163Z,993.24
2022-08-07T04:14:37.794Z,993.19
2022-08-07T04:15:10.961Z,993.24
2022-08-07T04:16:10.765Z,993.24
2022-08-07T04:17:19.906Z,993.20
2022-08-07T04:18:57.738Z,993.24
2022-08-07T04:19:14.659Z,993.25
2022-08-07T04:20:09.968Z,993.20
2022-08-07T04:21:09.859Z,993.24
2022-08-07T04:22:14.546Z,993.29
2022-08-07T04:23:19.226Z,993.23
2022-08-07T04:24:10.848Z,993.24
2022-08-07T04:25:12.627Z,993.30
2022-08-07T04:26:09.859Z,993.30
2022-08-07T04:27:15.228Z,993.29
2022-08-07T04:28:13.351Z,993.26
2022-08-07T04:29:11.034Z,993.23
2022-08-07T04:30:21.603Z,993.30
2022-08-07T04:31:19.756Z,993.26
2022-08-07T04:32:10.923Z,993.28
2022-08-07T04:33:09.871Z,993.31
2022-08-07T04:34:16.280Z,993.27
2022-08-07T04:35:11.308Z,993.27
2022-08-07T04:36:09.730Z,993.31
2022-08-07T04:37:15.449Z,993.33
2022-08-07T04:38:13.158Z,993.29
2022-08-07T04:39:10.553Z,993.35
2022-08-07T04:40:09.703Z,993.32
2022-08-07T04:41:09.676Z,993.34
2022-08-07T04:42:10.677Z,993.39
2022-08-07T04:43:09.624Z,993.38
2022-08-07T04:44:16.080Z,993.36
2022-08-07T04:45:10.639Z,993.34
2022-08-07T04:46:12.299Z,993.36
2022-08-07T04:47:10.606Z,993.40
2022-08-07T04:48:11.133Z,993.33
2022-08-07T04:49:17.884Z,993.39
2022-08-07T04:50:11.019Z,993.39
2022-08-07T04:51:09.562Z,993.42
2022-08-07T04:52:09.562Z,993.40
2022-08-07T04:53:27.756Z,993.43
2022-08-07T04:54:10.537Z,993.44
2022-08-07T04:55:14.864Z,993.41
2022-08-07T04:58:12.970Z,993.41
2022-08-07T04:58:14.999Z,993.41
2022-08-07T04:58:34.842Z,993.40
2022-08-07T05:00:08.920Z,993.39
2022-08-07T05:00:18.701Z,993.37
2022-08-07T05:01:13.581Z,993.42
2022-08-07T05:02:09.427Z,993.47
2022-08-07T05:03:17.357Z,993.45
2022-08-07T05:04:12.475Z,993.50
2022-08-07T05:05:51.837Z,993.50
2022-08-07T05:06:16.307Z,993.43
2022-08-07T05:07:30.650Z,993.42
2022-08-07T05:08:10.411Z,993.48
2022-08-07T05:09:09.394Z,993.57
2022-08-07T05:10:11.071Z,993.50
2022-08-07T05:11:09.313Z,993.48
2022-08-07T05:12:09.411Z,993.48
2022-08-07T05:14:44.860Z,993.51
2022-08-07T05:14:52.440Z,993.53
2022-08-07T05:15:10.334Z,993.49
2022-08-07T05:16:09.285Z,993.47
2022-08-07T05:17:11.908Z,993.55
2022-08-07T05:18:10.323Z,993.53
2022-08-07T05:19:09.232Z,993.53
2022-08-07T05:20:09.940Z,993.56
2022-08-07T05:21:09.347Z,993.54
2022-08-07T05:22:09.250Z,993.54
2022-08-07T05:23:15.439Z,993.58
2022-08-07T05:24:10.184Z,993.63
2022-08-07T05:25:11.766Z,993.57
2022-08-07T05:26:13.722Z,993.61
2022-08-07T05:27:14.539Z,993.56
2022-08-07T05:28:19.901Z,993.57
2022-08-07T05:29:10.782Z,993.57
2022-08-07T05:30:09.139Z,993.62
2022-08-07T05:31:09.106Z,993.62
2022-08-07T05:32:09.143Z,993.62
2022-08-07T05:33:09.255Z,993.58
2022-08-07T05:34:10.994Z,993.65
2022-08-07T05:35:09.111Z,993.62
2022-08-07T05:36:12.035Z,993.65
2022-08-07T05:37:09.176Z,993.65
2022-08-07T05:38:09.696Z,993.63
2022-08-07T05:40:14.104Z,993.61
2022-08-07T05:40:18.627Z,993.64
2022-08-07T05:41:14.494Z,993.67
2022-08-07T05:42:12.540Z,993.64
2022-08-07T05:43:10.612Z,993.65
2022-08-07T05:44:12.632Z,993.68
2022-08-07T05:45:14.349Z,993.65
2022-08-07T05:46:10.033Z,993.63
2022-08-07T05:47:18.850Z,993.65
2022-08-07T05:48:10.216Z,993.67
2022-08-07T05:49:12.336Z,993.63
2022-08-07T05:50:08.900Z,993.67
2022-08-07T05:51:08.946Z,993.68
2022-08-07T05:52:11.781Z,993.66
2022-08-07T05:54:12.731Z,993.58
2022-08-07T05:54:30.267Z,993.69
2022-08-07T05:55:10.714Z,993.67
2022-08-07T05:56:08.838Z,993.69
2022-08-07T05:57:09.127Z,993.74
2022-08-07T05:58:08.822Z,993.75
2022-08-07T05:59:08.880Z,993.73
2022-08-07T06:00:08.876Z,993.71
2022-08-07T06:01:10.660Z,993.74
2022-08-07T06:02:08.798Z,993.75
2022-08-07T06:03:08.867Z,993.72
2022-08-07T06:04:08.730Z,993.73
2022-08-07T06:05:10.999Z,993.68
2022-08-07T06:06:17.257Z,993.68
2022-08-07T06:07:09.774Z,993.68
2022-08-07T06:08:29.867Z,993.72
2022-08-07T06:09:09.699Z,993.69
2022-08-07T06:10:11.266Z,993.72
2022-08-07T06:11:09.681Z,993.69
2022-08-07T06:12:08.646Z,993.70
2022-08-07T06:13:13.309Z,993.68
2022-08-07T06:14:12.212Z,993.68
2022-08-07T06:15:09.632Z,993.69
2022-08-07T06:16:10.217Z,993.70
2022-08-07T06:17:08.675Z,993.72
2022-08-07T06:18:08.622Z,993.66
2022-08-07T06:19:08.626Z,993.72
2022-08-07T06:20:12.706Z,993.68
2022-08-07T06:22:14.300Z,993.70
2022-08-07T06:22:14.499Z,993.74
2022-08-07T06:23:46.741Z,993.75
2022-08-07T06:24:45.612Z,993.77
2022-08-07T06:25:10.262Z,993.75
2022-08-07T06:26:08.509Z,993.71
2022-08-07T06:27:08.488Z,993.77
2022-08-07T06:28:08.753Z,993.77
2022-08-07T06:29:08.468Z,993.79
2022-08-07T06:30:08.468Z,993.80
2022-08-07T06:31:10.029Z,993.77
2022-08-07T06:32:08.663Z,993.76
2022-08-07T06:33:15.620Z,993.69
2022-08-07T06:34:09.448Z,993.65
2022-08-07T06:35:10.611Z,993.61
2022-08-07T06:36:13.910Z,993.62
2022-08-07T06:37:08.374Z,993.65
2022-08-07T06:38:10.032Z,993.61
2022-08-07T06:40:16.977Z,993.65
2022-08-07T06:40:17.916Z,993.63
2022-08-07T06:41:13.036Z,993.56
2022-08-07T06:42:08.351Z,993.63
2022-08-07T06:43:21.460Z,993.63
2022-08-07T06:44:10.900Z,993.60
2022-08-07T06:45:11.311Z,993.66
2022-08-07T06:46:12.274Z,993.59
2022-08-07T06:47:12.329Z,993.64
2022-08-07T06:48:09.347Z,993.67
2022-08-07T06:49:08.303Z,993.61
2022-08-07T06:50:08.334Z,993.58
2022-08-07T06:51:08.384Z,993.57
2022-08-07T06:52:10.332Z,993.55
2022-08-07T06:53:49.325Z,993.56
2022-08-07T06:55:27.461Z,993.63
2022-08-07T06:55:34.391Z,993.60
2022-08-07T06:56:15.391Z,993.62
2022-08-07T06:57:09.148Z,993.61
2022-08-07T06:58:09.549Z,993.57
2022-08-07T07:00:12.818Z,993.53
2022-08-07T07:00:13.648Z,993.54
2022-08-07T07:01:09.156Z,993.59
2022-08-07T07:02:08.176Z,993.58
2022-08-07T07:03:10.717Z,993.62
2022-08-07T07:04:28.290Z,993.65
2022-08-07T07:05:12.577Z,993.51
2022-08-07T07:06:11.242Z,993.57
2022-08-07T07:07:10.401Z,993.55
2022-08-07T07:08:12.329Z,993.52
2022-08-07T07:09:08.061Z,993.52
2022-08-07T07:10:08.013Z,993.50
2022-08-07T07:11:14.083Z,993.56
2022-08-07T07:12:18.099Z,993.54
2022-08-07T07:13:10.035Z,993.58
2022-08-07T07:14:08.498Z,993.56
2022-08-07T07:15:09.166Z,993.57
2022-08-07T07:16:08.958Z,993.54
2022-08-07T07:17:07.928Z,993.54
2022-08-07T07:18:08.930Z,993.51
2022-08-07T07:19:40.997Z,993.52
2022-08-07T07:20:08.899Z,993.52
2022-08-07T07:21:13.429Z,993.51
2022-08-07T07:22:33.964Z,993.52
2022-08-07T07:24:06.089Z,993.49
2022-08-07T07:24:12.503Z,993.50
2022-08-07T07:26:31.583Z,993.49
2022-08-07T07:26:35.841Z,993.48
2022-08-07T07:27:08.825Z,993.45
2022-08-07T07:28:42.185Z,993.44
2022-08-07T07:29:39.918Z,993.40
2022-08-07T07:30:12.218Z,993.40
2022-08-07T07:31:08.917Z,993.37
2022-08-07T07:32:07.909Z,993.43
2022-08-07T07:33:07.985Z,993.34
2022-08-07T07:34:07.863Z,993.38
2022-08-07T07:35:07.753Z,993.30
2022-08-07T07:36:12.787Z,993.37
2022-08-07T07:37:22.139Z,993.33
2022-08-07T07:38:08.864Z,993.35
2022-08-07T07:39:07.795Z,993.34
2022-08-07T07:40:14.870Z,993.30
2022-08-07T07:41:09.117Z,993.26
2022-08-07T07:42:13.207Z,993.30
2022-08-07T07:43:15.079Z,993.35
2022-08-07T07:44:17.202Z,993.33
2022-08-07T07:45:08.665Z,993.23
2022-08-07T07:46:36.665Z,993.26
2022-08-07T07:47:14.067Z,993.24
2022-08-07T07:48:08.677Z,993.25
2022-08-07T07:49:08.904Z,993.16
2022-08-07T07:50:33.641Z,993.16
2022-08-07T07:51:08.660Z,993.16
2022-08-07T07:52:07.682Z,993.15
2022-08-07T07:53:13.505Z,993.17
2022-08-07T07:54:08.517Z,993.05
2022-08-07T07:55:07.516Z,993.02
2022-08-07T07:56:07.503Z,993.06
2022-08-07T07:57:07.596Z,993.11
2022-08-07T07:58:07.543Z,993.12
2022-08-07T07:59:07.483Z,993.13
2022-08-07T08:00:07.488Z,993.14
2022-08-07T08:02:01.529Z,993.16
2022-08-07T08:02:10.800Z,993.15
2022-08-07T08:03:08.445Z,993.15
2022-08-07T08:04:10.272Z,993.04
2022-08-07T08:05:14.336Z,992.96
2022-08-07T08:06:11.597Z,993.01
2022-08-07T08:07:07.825Z,993.00
2022-08-07T08:08:07.379Z,993.10
2022-08-07T08:09:08.381Z,993.18
2022-08-07T08:10:07.346Z,993.16
2022-08-07T08:11:08.666Z,993.12
2022-08-07T08:12:07.362Z,993.16
2022-08-07T08:13:07.319Z,993.02
2022-08-07T08:14:07.610Z,993.08
2022-08-07T08:15:08.269Z,992.99
2022-08-07T08:16:07.303Z,993.07
2022-08-07T08:17:55.632Z,993.03
2022-08-07T08:18:17.558Z,993.10
2022-08-07T08:19:17.756Z,993.09
2022-08-07T08:20:18.119Z,993.10
2022-08-07T08:21:08.254Z,993.13
2022-08-07T08:22:07.714Z,993.09
2022-08-07T08:23:08.521Z,993.07
2022-08-07T08:24:07.905Z,993.15
2022-08-07T08:25:24.737Z,993.13
2022-08-07T08:26:08.178Z,993.12
2022-08-07T08:27:09.607Z,993.09
2022-08-07T08:28:07.214Z,993.04
2022-08-07T08:29:08.273Z,993.12
2022-08-07T08:30:07.130Z,993.07
2022-08-07T08:31:07.125Z,993.09
2022-08-07T08:32:17.819Z,993.04
2022-08-07T08:33:10.290Z,993.06
2022-08-07T08:34:08.360Z,993.00
2022-08-07T08:35:07.605Z,993.02
2022-08-07T08:36:07.086Z,992.91
2022-08-07T08:37:09.870Z,992.99
2022-08-07T08:38:08.451Z,992.95
2022-08-07T08:39:07.079Z,992.96
2022-08-07T08:40:07.066Z,992.88
2022-08-07T08:41:08.070Z,992.89
2022-08-07T08:42:09.260Z,992.94
2022-08-07T08:43:07.012Z,992.92
2022-08-07T08:44:07.002Z,992.88
2022-08-07T08:45:13.293Z,992.90
2022-08-07T08:46:07.968Z,992.90
2022-08-07T08:47:09.869Z,992.91
2022-08-07T08:48:06.930Z,992.87
2022-08-07T08:49:06.954Z,992.84
2022-08-07T08:50:07.390Z,992.91
2022-08-07T08:51:14.746Z,992.86
2022-08-07T08:52:14.360Z,992.80
2022-08-07T08:53:07.909Z,992.84
2022-08-07T08:54:06.879Z,992.81
2022-08-07T08:55:07.876Z,992.83
2022-08-07T08:56:06.855Z,992.77
2022-08-07T08:57:06.910Z,992.79
2022-08-07T08:58:06.872Z,992.75
2022-08-07T08:59:13.741Z,992.76
2022-08-07T09:00:09.422Z,992.78
2022-08-07T09:01:15.080Z,992.79
2022-08-07T09:02:08.956Z,992.76
2022-08-07T09:03:07.583Z,992.69
2022-08-07T09:04:06.804Z,992.72
2022-08-07T09:05:06.759Z,992.70
2022-08-07T09:06:06.736Z,992.72
2022-08-07T09:07:06.737Z,992.68
2022-08-07T09:08:06.866Z,992.70
2022-08-07T09:09:09.704Z,992.64
2022-08-07T09:10:07.692Z,992.64
2022-08-07T09:11:06.730Z,992.68
2022-08-07T09:12:30.473Z,992.72
2022-08-07T09:13:07.683Z,992.68
2022-08-07T09:14:06.667Z,992.65
2022-08-07T09:16:22.654Z,992.64
2022-08-07T09:16:25.380Z,992.60
2022-08-07T09:17:07.751Z,992.59
2022-08-07T09:18:11.535Z,992.59
2022-08-07T09:19:52.214Z,992.56
2022-08-07T09:20:09.447Z,992.60
2022-08-07T09:21:13.849Z,992.63
2022-08-07T09:24:27.243Z,992.57
2022-08-07T09:24:30.449Z,992.64
2022-08-07T09:24:54.807Z,992.57
2022-08-07T09:25:14.588Z,992.58
2022-08-07T09:26:08.378Z,992.53
2022-08-07T09:27:09.078Z,992.51
2022-08-07T09:30:01.625Z,992.58
2022-08-07T09:30:03.549Z,992.52
2022-08-07T09:30:08.746Z,992.47
2022-08-07T09:31:06.505Z,992.48
2022-08-07T09:32:17.111Z,992.48
2022-08-07T09:33:16.444Z,992.48
2022-08-07T09:34:07.491Z,992.47
2022-08-07T09:36:01.006Z,992.44
2022-08-07T09:36:07.780Z,992.41
2022-08-07T09:37:06.494Z,992.43
2022-08-07T09:38:06.429Z,992.37
2022-08-07T09:39:18.000Z,992.40
2022-08-07T09:40:07.448Z,992.37
2022-08-07T09:41:06.461Z,992.41
2022-08-07T09:42:07.684Z,992.34
2022-08-07T09:43:08.336Z,992.37
2022-08-07T09:44:20.001Z,992.33
2022-08-07T09:47:51.179Z,992.27
2022-08-07T09:48:20.202Z,992.28
2022-08-07T09:50:02.723Z,992.21
2022-08-07T09:50:20.189Z,992.25
2022-08-07T09:52:10.428Z,992.18
2022-08-07T09:52:34.473Z,992.18
2022-08-07T09:53:20.402Z,992.28
2022-08-07T09:54:19.105Z,992.27
2022-08-07T09:55:29.646Z,992.24
2022-08-07T09:56:37.609Z,992.20
2022-08-07T09:57:20.090Z,992.19
2022-08-07T09:58:19.108Z,992.16
2022-08-07T09:59:21.969Z,992.20
2022-08-07T10:00:19.084Z,992.14
2022-08-07T10:01:53.079Z,992.17
2022-08-07T10:02:20.077Z,992.17
2022-08-07T10:04:06.927Z,992.18
2022-08-07T10:04:32.562Z,992.15
2022-08-07T10:05:20.112Z,992.14
2022-08-07T10:06:24.461Z,992.09
2022-08-07T10:07:24.424Z,992.04
2022-08-07T10:08:19.952Z,992.12
2022-08-07T10:09:23.721Z,992.10
2022-08-07T10:10:21.617Z,992.06
2022-08-07T10:12:02.403Z,992.02
2022-08-07T10:12:21.447Z,992.00
2022-08-07T10:13:54.844Z,991.99
2022-08-07T10:14:22.686Z,992.00
2022-08-07T10:15:19.854Z,991.98
2022-08-07T10:16:19.142Z,991.89
2022-08-07T10:17:18.833Z,991.79
2022-08-07T10:18:18.873Z,991.77
2022-08-07T10:19:18.845Z,991.66
2022-08-07T10:20:22.001Z,991.70
2022-08-07T10:22:12.388Z,991.71
2022-08-07T10:22:33.367Z,991.60
2022-08-07T10:24:05.346Z,991.64
2022-08-07T10:24:21.409Z,991.70
2022-08-07T10:25:22.547Z,991.72
2022-08-07T10:26:24.685Z,991.80
2022-08-07T10:27:19.813Z,991.84
2022-08-07T10:28:18.764Z,991.82
2022-08-07T10:29:18.891Z,991.75
2022-08-07T10:30:18.952Z,991.80
2022-08-07T10:31:18.691Z,991.77
2022-08-07T10:32:51.402Z,991.77
2022-08-07T10:33:19.762Z,991.68
2022-08-07T10:34:31.873Z,991.65
2022-08-07T10:35:20.252Z,991.67
2022-08-07T10:36:18.648Z,991.71
2022-08-07T10:37:19.656Z,991.71
2022-08-07T10:38:36.235Z,991.71
2022-08-07T10:39:19.869Z,991.64
2022-08-07T10:40:18.748Z,991.63
2022-08-07T10:41:47.241Z,991.66
2022-08-07T10:42:20.879Z,991.61
2022-08-07T10:43:19.344Z,991.49
2022-08-07T10:44:33.903Z,991.51
2022-08-07T10:45:57.624Z,991.53
2022-08-07T10:46:19.537Z,991.62
2022-08-07T10:47:27.053Z,991.60
2022-08-07T10:48:24.192Z,991.56
2022-08-07T10:49:24.478Z,991.54
2022-08-07T10:50:25.848Z,991.60
2022-08-07T10:51:39.368Z,991.58
2022-08-07T10:52:21.009Z,991.55
2022-08-07T10:53:21.527Z,991.63
2022-08-07T10:54:19.982Z,991.59
2022-08-07T10:55:27.050Z,991.59
2022-08-07T10:56:31.242Z,991.67
2022-08-07T10:57:33.924Z,991.58
2022-08-07T10:58:25.126Z,991.56
2022-08-07T10:59:21.308Z,991.64
2022-08-07T11:00:36.701Z,991.55
2022-08-07T11:01:23.531Z,991.53
2022-08-07T11:02:33.445Z,991.53
2022-08-07T11:03:20.906Z,991.55
2022-08-07T11:04:31.560Z,991.51
2022-08-07T11:05:21.006Z,991.52
2022-08-07T11:06:22.007Z,991.41
2022-08-07T11:07:56.479Z,991.39
2022-08-07T11:08:20.949Z,991.34
2022-08-07T11:10:08.403Z,991.43
2022-08-07T11:10:20.822Z,991.40
2022-08-07T11:11:20.211Z,991.42
2022-08-07T11:12:32.064Z,991.42
2022-08-07T11:14:46.351Z,991.42
2022-08-07T11:14:57.017Z,991.37
2022-08-07T11:15:21.702Z,991.46
2022-08-07T11:16:20.809Z,991.40
2022-08-07T11:17:23.341Z,991.44
2022-08-07T11:18:20.775Z,991.40
2022-08-07T11:19:21.580Z,991.43
2022-08-07T11:20:22.467Z,991.36
2022-08-07T11:21:19.723Z,991.37
2022-08-07T11:22:33.233Z,991.39
2022-08-07T11:23:30.911Z,991.37
2022-08-07T11:24:20.754Z,991.32
2022-08-07T11:25:31.052Z,991.32
2022-08-07T11:26:20.710Z,991.30
2022-08-07T11:27:20.634Z,991.26
2022-08-07T11:28:20.669Z,991.11
2022-08-07T11:29:41.095Z,991.13
2022-08-07T11:30:39.113Z,991.25
2022-08-07T11:31:20.648Z,991.35
2022-08-07T11:32:25.726Z,991.33
2022-08-07T11:34:29.275Z,991.12
2022-08-07T11:35:25.087Z,991.27
2022-08-07T11:36:30.495Z,991.00
2022-08-07T11:37:24.353Z,991.00
2022-08-07T11:38:21.252Z,991.18
2022-08-07T11:39:20.472Z,991.05
2022-08-07T11:40:19.953Z,991.11
2022-08-07T11:41:31.072Z,991.21
2022-08-07T11:42:21.365Z,990.99
2022-08-07T11:43:41.159Z,990.98
2022-08-07T11:44:20.494Z,990.96
2022-08-07T11:45:20.564Z,991.13
2022-08-07T11:46:19.463Z,991.00
2022-08-07T11:47:19.500Z,991.19
2022-08-07T11:48:29.494Z,991.30
2022-08-07T11:49:51.494Z,991.25
2022-08-07T11:50:32.063Z,991.04
2022-08-07T11:52:29.338Z,991.00
2022-08-07T11:53:21.795Z,991.08
2022-08-07T11:54:25.311Z,991.06
2022-08-07T11:56:25.419Z,991.05
2022-08-07T11:56:26.718Z,990.96
2022-08-07T11:57:20.363Z,990.89
2022-08-07T11:58:20.406Z,990.98
2022-08-07T12:00:08.207Z,991.05
2022-08-07T12:02:00.539Z,990.95
2022-08-07T12:02:40.652Z,991.12
2022-08-07T12:03:44.336Z,991.09
2022-08-07T12:04:39.274Z,991.05
2022-08-07T12:05:47.328Z,991.14
2022-08-07T12:06:44.860Z,991.14
2022-08-07T12:07:40.211Z,991.06
2022-08-07T12:08:38.271Z,991.07
2022-08-07T12:09:38.254Z,990.99
2022-08-07T12:10:41.840Z,991.02
2022-08-07T12:11:43.486Z,991.06
2022-08-07T12:13:47.710Z,991.04
2022-08-07T12:14:38.386Z,990.89
2022-08-07T12:16:06.319Z,990.90
2022-08-07T12:16:39.201Z,990.91
2022-08-07T12:17:38.479Z,991.02
2022-08-07T12:18:38.129Z,990.86
2022-08-07T12:20:03.279Z,991.07
2022-08-07T12:20:39.655Z,990.77
2022-08-07T12:21:55.870Z,990.80
2022-08-07T12:22:55.854Z,990.86
2022-08-07T12:24:06.633Z,990.78
2022-08-07T12:24:40.241Z,990.80
2022-08-07T12:26:22.141Z,990.73
2022-08-07T12:26:41.856Z,990.81
2022-08-07T12:28:09.962Z,990.80
2022-08-07T12:28:39.937Z,990.80
2022-08-07T12:30:53.094Z,990.78
2022-08-07T12:32:01.986Z,990.87
2022-08-07T12:32:39.007Z,990.75
2022-08-07T12:33:56.278Z,990.77
2022-08-07T12:34:38.963Z,991.02
2022-08-07T12:35:38.000Z,990.99